Terminal Aerodrome Forecast
Issued by NWS

Home | Current Version | Previous Version | Text Only | Print | Product List | Glossary On
Versions: 1 2 3 4 5 6 7 8 9 10 11 12 13 14 15 16 17 18 19 20 21 22 23 24 25
198
FTUS41 KOKX 250806 AAA
TAFGON
TAF AMD
KGON 250806Z 2508/2606 07013KT 6SM -RA BR BKN010 OVC040
     FM251100 06014G20KT 6SM -RA BR SCT007 OVC010
     FM251300 06017G22KT 4SM -RA BR BKN007 OVC010
     FM251600 06018G25KT 1SM RA BR OVC006
     FM260100 06014KT 1SM -RA OVC004=

USA.gov is the U.S. government's official web portal to all federal, state and local government web resources and services.